Time;durP1;ratioP1;P1;durP2;ratioP2;P2;SDS_P1;SDS_P2;PMS_P1;PMS_P2;Temp;Humidity;BMP_temperature;BMP_pressure;BME280_temperature;BME280_humidity;BME280_pressure;Samples;Min_cycle;Max_cycle;Signal;HPM_P1;HPM_P2
2021/07/25 09:20:10;;;;;;;9.20;6.10;;;22.90;99.90;;;;;;12013764;27;20819;-63
2021/07/25 09:25:58;;;;;;;8.27;5.50;;;23.00;99.90;;;;;;11965848;27;20049;-63
2021/07/25 09:31:45;;;;;;;6.18;4.30;;;23.60;99.90;;;;;;11974081;27;20076;-63
2021/07/25 09:37:40;;;;;;;9.48;5.03;;;24.00;99.90;;;;;;11944741;28;20060;-64
2021/07/25 09:43:27;;;;;;;8.40;5.75;;;24.50;99.90;;;;;;11971323;28;20053;-64
2021/07/25 09:49:14;;;;;;;15.98;6.20;;;24.90;99.90;;;;;;11939241;28;20045;-64
2021/07/25 09:55:04;;;;;;;9.43;5.72;;;24.80;99.90;;;;;;11947364;28;20057;-64
2021/07/25 10:00:50;;;;;;;8.85;5.70;;;24.90;99.90;;;;;;11957827;28;20505;-64
2021/07/25 10:06:40;;;;;;;10.95;5.50;;;25.10;99.90;;;;;;11923071;28;20484;-64
2021/07/25 10:12:30;;;;;;;8.88;5.60;;;25.40;99.90;;;;;;11929155;28;20469;-64
2021/07/25 10:18:16;;;;;;;6.97;5.50;;;25.70;99.90;;;;;;11969936;28;20504;-64
2021/07/25 10:24:06;;;;;;;9.10;5.43;;;25.90;99.30;;;;;;11947506;28;20533;-64
2021/07/25 10:29:55;;;;;;;11.32;5.50;;;25.90;98.80;;;;;;11945247;28;20045;-65
2021/07/25 10:42:25;;;;;;;7.20;4.97;;;26.20;97.10;;;;;;11946036;28;20426;-65
2021/07/25 10:48:15;;;;;;;9.63;5.85;;;26.30;97.00;;;;;;11924586;28;20518;-65
2021/07/25 10:54:38;;;;;;;7.55;5.43;;;26.20;96.50;;;;;;11974350;28;20071;-65
2021/07/25 11:00:40;;;;;;;11.88;6.47;;;26.00;97.70;;;;;;11964776;28;20063;-69
2021/07/25 11:06:28;;;;;;;11.50;6.87;;;26.10;97.30;;;;;;11959157;28;20365;-69
2021/07/25 11:12:15;;;;;;;12.90;6.60;;;25.90;96.30;;;;;;11937792;28;20088;-63
2021/07/25 11:18:05;;;;;;;13.10;6.13;;;25.80;94.50;;;;;;11937923;28;20042;-68
2021/07/25 11:24:44;;;;;;;14.15;7.18;;;25.50;95.10;;;;;;11933501;28;20141;-65
2021/07/25 11:31:07;;;;;;;12.68;7.05;;;25.40;96.10;;;;;;11946657;28;20479;-64
2021/07/25 11:36:55;;;;;;;13.10;7.60;;;25.40;97.40;;;;;;11944794;28;20049;-64
2021/07/25 11:42:43;;;;;;;9.30;6.35;;;25.00;97.70;;;;;;11939523;28;20409;-64
2021/07/25 11:48:31;;;;;;;9.15;6.55;;;25.10;98.10;;;;;;11947270;28;20054;-64
2021/07/25 11:54:23;;;;;;;11.63;6.28;;;25.30;98.00;;;;;;11923812;28;20052;-64
2021/07/25 12:00:12;;;;;;;8.87;4.87;;;25.50;97.90;;;;;;11969830;28;20056;-63
2021/07/25 12:06:11;;;;;;;10.25;4.78;;;25.80;96.60;;;;;;11963430;28;20057;-66
2021/07/25 12:12:03;;;;;;;7.05;5.13;;;26.20;94.80;;;;;;11892408;28;20525;-65
2021/07/25 12:17:50;;;;;;;8.05;4.90;;;26.00;95.00;;;;;;11910550;28;20045;-66
2021/07/25 12:23:38;;;;;;;9.10;5.07;;;25.80;93.50;;;;;;11902419;28;20054;-66
2021/07/25 12:29:45;;;;;;;6.35;4.20;;;25.60;93.90;;;;;;11900258;28;20099;-66
2021/07/25 12:35:34;;;;;;;7.35;4.28;;;25.50;93.80;;;;;;11868897;28;20144;-65
2021/07/25 12:41:41;;;;;;;7.80;4.50;;;25.20;96.00;;;;;;11885508;28;20042;-63
2021/07/25 12:47:29;;;;;;;7.65;3.55;;;25.70;96.60;;;;;;11895390;28;20050;-66
2021/07/25 12:53:17;;;;;;;3.50;2.97;;;26.20;94.60;;;;;;11874002;28;20774;-66
2021/07/25 12:59:08;;;;;;;4.10;3.00;;;26.80;92.50;;;;;;11872360;28;20802;-66
2021/07/25 13:04:55;;;;;;;5.45;2.90;;;26.40;92.00;;;;;;11838736;28;20122;-66
2021/07/25 13:10:42;;;;;;;4.10;3.17;;;26.30;92.00;;;;;;11919560;28;20417;-65
2021/07/25 13:16:30;;;;;;;6.13;3.25;;;26.20;92.30;;;;;;11890026;28;20751;-65
2021/07/25 13:22:17;;;;;;;7.25;3.50;;;26.00;93.70;;;;;;11875540;28;20398;-65
2021/07/25 13:28:04;;;;;;;4.70;2.90;;;25.80;95.40;;;;;;11878930;28;20535;-63
2021/07/25 13:33:53;;;;;;;4.15;2.83;;;26.20;96.30;;;;;;11892593;28;20050;-63
2021/07/25 13:39:40;;;;;;;5.13;2.58;;;26.50;96.70;;;;;;11898833;28;21133;-63
2021/07/25 13:45:26;;;;;;;4.97;2.30;;;26.80;95.90;;;;;;11851754;28;21425;-64
2021/07/25 13:51:16;;;;;;;6.22;3.55;;;27.00;95.10;;;;;;11894918;28;20425;-66
2021/07/25 13:57:03;;;;;;;7.07;3.80;;;27.20;93.80;;;;;;11888698;28;20061;-68
2021/07/25 14:02:50;;;;;;;4.43;3.63;;;27.50;94.00;;;;;;11909596;28;20045;-67
2021/07/25 14:08:38;;;;;;;5.55;3.60;;;27.90;93.20;;;;;;11908842;28;20061;-68
2021/07/25 14:14:25;;;;;;;8.88;2.85;;;28.00;92.20;;;;;;11912703;28;20499;-64
2021/07/25 14:20:13;;;;;;;3.72;2.80;;;28.30;91.90;;;;;;11909032;28;20053;-64
2021/07/25 14:26:02;;;;;;;3.22;2.35;;;28.30;91.20;;;;;;11917091;28;20080;-64
2021/07/25 14:31:48;;;;;;;3.80;2.67;;;28.30;90.60;;;;;;11947916;28;20545;-63
2021/07/25 14:37:35;;;;;;;5.78;2.40;;;28.40;90.10;;;;;;11945788;28;20399;-63
2021/07/25 14:43:24;;;;;;;2.80;2.08;;;28.10;89.80;;;;;;11947955;28;20053;-63
2021/07/25 14:49:11;;;;;;;3.38;1.90;;;27.80;90.40;;;;;;11971890;28;20140;-64
2021/07/25 14:54:57;;;;;;;5.32;2.10;;;27.20;90.00;;;;;;11948413;28;20117;-62
2021/07/25 15:00:46;;;;;;;6.10;2.15;;;26.70;93.00;;;;;;11972730;28;20050;-63
2021/07/25 15:06:33;;;;;;;5.57;2.22;;;26.10;93.90;;;;;;11924507;28;20556;-63
2021/07/25 15:12:20;;;;;;;3.78;1.65;;;26.10;95.30;;;;;;11889017;28;20046;-63
2021/07/25 15:18:10;;;;;;;4.95;2.85;;;26.60;94.70;;;;;;11902731;28;20057;-63
2021/07/25 15:23:57;;;;;;;2.13;1.10;;;27.50;94.80;;;;;;11931301;28;20104;-63
2021/07/25 15:29:44;;;;;;;2.00;1.55;;;27.70;90.80;;;;;;11923696;28;20485;-64
2021/07/25 15:35:43;;;;;;;1.58;1.42;;;27.70;87.80;;;;;;11936153;28;20502;-64
2021/07/25 15:41:34;;;;;;;3.05;1.20;;;27.20;86.90;;;;;;11918759;28;20049;-63
2021/07/25 15:47:21;;;;;;;3.45;1.40;;;26.80;88.10;;;;;;11938819;28;20540;-64
2021/07/25 15:53:09;;;;;;;2.28;1.55;;;26.20;91.70;;;;;;11937274;28;20398;-64
2021/07/25 15:58:56;;;;;;;3.25;1.52;;;25.70;93.50;;;;;;11915317;28;20049;-64
2021/07/25 16:04:43;;;;;;;3.38;1.73;;;25.20;94.70;;;;;;11857271;28;20046;-64
2021/07/25 16:10:33;;;;;;;2.53;1.67;;;25.10;95.90;;;;;;11913686;28;20065;-64
2021/07/25 16:16:21;;;;;;;1.92;1.65;;;25.10;96.30;;;;;;11896946;28;20063;-64
2021/07/25 16:22:08;;;;;;;3.65;1.90;;;25.10;96.10;;;;;;11964746;28;20044;-63
2021/07/25 16:27:56;;;;;;;2.88;1.90;;;25.00;96.10;;;;;;11942444;28;20053;-63
2021/07/25 16:33:43;;;;;;;1.80;1.60;;;25.00;96.60;;;;;;11944148;28;20045;-63
2021/07/25 16:39:30;;;;;;;4.90;3.80;;;24.90;96.90;;;;;;11967747;28;20143;-65
2021/07/25 16:45:18;;;;;;;3.22;2.10;;;25.00;96.60;;;;;;11943923;28;20510;-69
2021/07/25 16:51:06;;;;;;;3.38;1.90;;;25.20;96.30;;;;;;11941014;28;20049;-72
2021/07/25 16:56:53;;;;;;;4.38;1.70;;;25.20;95.80;;;;;;11966526;28;20398;-67
2021/07/25 17:02:41;;;;;;;5.53;2.45;;;25.50;96.00;;;;;;11940668;27;20049;-67
2021/07/25 17:08:28;;;;;;;2.95;1.58;;;26.10;95.20;;;;;;11935522;28;20049;-68
2021/07/25 17:14:15;;;;;;;3.13;1.80;;;28.20;92.60;;;;;;11966268;28;20052;-68
2021/07/25 17:20:04;;;;;;;1.90;1.40;;;29.20;89.50;;;;;;11944261;28;20132;-68
2021/07/25 17:25:51;;;;;;;2.30;1.48;;;29.20;89.30;;;;;;11966696;28;20053;-68
2021/07/25 17:31:38;;;;;;;3.00;1.30;;;29.60;85.00;;;;;;11945986;28;20141;-68
2021/07/25 17:37:27;;;;;;;2.60;1.40;;;31.60;77.90;;;;;;11946586;28;20041;-65
2021/07/25 17:43:15;;;;;;;2.60;1.60;;;31.20;76.40;;;;;;11902393;28;20493;-65
2021/07/25 17:49:02;;;;;;;4.55;1.38;;;29.10;82.60;;;;;;11958327;28;20057;-65
2021/07/25 17:54:50;;;;;;;2.08;1.48;;;27.60;87.60;;;;;;11975758;28;20045;-65
2021/07/25 18:00:38;;;;;;;1.52;1.33;;;26.80;90.50;;;;;;11974939;28;20055;-65
2021/07/25 18:06:25;;;;;;;3.00;1.42;;;26.40;91.80;;;;;;11951220;28;20054;-65
2021/07/25 18:12:14;;;;;;;2.60;1.77;;;26.00;91.90;;;;;;11899407;28;20060;-65
2021/07/25 18:18:01;;;;;;;2.00;1.52;;;25.70;92.40;;;;;;11930809;28;20069;-65
2021/07/25 18:23:52;;;;;;;3.40;1.90;;;25.50;92.90;;;;;;11888004;28;20120;-65
2021/07/25 18:29:41;;;;;;;1.88;1.58;;;25.40;93.20;;;;;;11917578;28;20477;-64
2021/07/25 18:35:28;;;;;;;8.02;2.22;;;25.30;93.70;;;;;;11899138;28;20045;-64
2021/07/25 18:41:15;;;;;;;3.55;1.48;;;25.30;93.80;;;;;;11910767;28;20561;-64
2021/07/25 18:47:04;;;;;;;2.30;1.42;;;25.30;94.00;;;;;;11950296;28;20053;-63
2021/07/25 18:52:51;;;;;;;1.83;1.48;;;25.80;93.80;;;;;;11926020;28;20052;-65
2021/07/25 18:58:38;;;;;;;1.92;1.30;;;27.20;90.40;;;;;;11969419;28;20045;-64
2021/07/25 19:04:26;;;;;;;2.28;1.58;;;26.70;89.50;;;;;;11971744;28;20132;-65
2021/07/25 19:10:13;;;;;;;2.47;1.17;;;25.90;90.40;;;;;;11938901;28;20129;-65
2021/07/25 19:16:00;;;;;;;1.65;1.20;;;25.30;90.50;;;;;;11897927;28;20068;-65
2021/07/25 19:21:49;;;;;;;1.23;1.13;;;25.00;91.30;;;;;;11930803;28;20060;-64
2021/07/25 19:27:37;;;;;;;1.42;1.30;;;24.80;91.40;;;;;;11934568;28;20426;-65
2021/07/25 19:33:24;;;;;;;2.67;1.17;;;24.60;91.60;;;;;;11926642;28;20057;-65
2021/07/25 19:39:12;;;;;;;2.45;1.45;;;24.50;91.90;;;;;;11941312;28;20044;-65
2021/07/25 19:44:59;;;;;;;2.15;1.33;;;24.40;91.90;;;;;;11968122;28;20063;-66
2021/07/25 19:50:47;;;;;;;4.45;2.03;;;24.40;92.50;;;;;;11949196;28;20057;-65
2021/07/25 19:56:35;;;;;;;6.32;1.90;;;24.30;93.00;;;;;;11918807;28;20042;-65
2021/07/25 20:02:22;;;;;;;3.72;1.60;;;24.20;93.70;;;;;;11936748;28;20419;-65
2021/07/25 20:08:09;;;;;;;3.70;1.90;;;24.10;93.50;;;;;;11918922;28;20054;-65
2021/07/25 20:13:58;;;;;;;2.63;2.08;;;24.00;94.10;;;;;;11935653;28;20049;-63
2021/07/25 20:19:45;;;;;;;6.05;1.90;;;23.80;94.90;;;;;;11925325;28;20053;-63
2021/07/25 20:25:31;;;;;;;4.97;1.90;;;23.70;95.10;;;;;;11968573;28;20045;-63
2021/07/25 20:31:20;;;;;;;3.42;1.60;;;23.70;95.20;;;;;;11968171;28;20049;-63
2021/07/25 20:37:07;;;;;;;7.43;1.55;;;23.60;95.60;;;;;;11943959;28;20045;-63
2021/07/25 20:42:54;;;;;;;2.03;1.65;;;23.60;95.90;;;;;;11944136;28;20051;-63
2021/07/25 20:48:43;;;;;;;2.75;1.50;;;23.50;95.70;;;;;;11942898;28;20045;-63
2021/07/25 20:54:30;;;;;;;7.00;2.40;;;23.40;95.90;;;;;;11943204;28;20060;-62
2021/07/25 21:00:18;;;;;;;4.20;1.80;;;23.30;96.60;;;;;;11942300;28;20425;-63
2021/07/25 21:06:07;;;;;;;3.83;2.50;;;23.40;96.90;;;;;;11934976;28;20049;-63
2021/07/25 21:11:54;;;;;;;5.00;2.00;;;23.40;96.80;;;;;;11927291;28;20042;-63
2021/07/25 21:17:41;;;;;;;7.55;2.00;;;23.30;96.80;;;;;;11887005;28;20092;-63
2021/07/25 21:23:29;;;;;;;3.67;2.17;;;23.30;97.20;;;;;;11943960;28;20102;-63
2021/07/25 21:29:16;;;;;;;6.75;2.40;;;23.30;97.50;;;;;;11939745;28;20099;-63
2021/07/25 21:35:04;;;;;;;7.32;2.40;;;23.30;97.30;;;;;;11945587;28;20041;-63
2021/07/25 21:40:59;;;;;;;5.18;1.90;;;23.30;97.10;;;;;;11942097;28;20079;-63
2021/07/25 21:46:46;;;;;;;5.82;1.85;;;23.30;97.00;;;;;;11942202;28;20056;-63
2021/07/25 21:52:33;;;;;;;4.55;2.00;;;23.20;97.30;;;;;;11946620;28;20515;-63
2021/07/25 21:58:21;;;;;;;4.47;2.47;;;23.20;97.50;;;;;;11948838;28;20509;-62
2021/07/25 22:10:13;;;;;;;8.18;2.53;;;23.20;97.20;;;;;;11914203;28;20162;-63
2021/07/25 22:16:02;;;;;;;5.07;2.08;;;23.10;97.50;;;;;;11914094;28;20600;-64
2021/07/25 22:21:49;;;;;;;5.70;2.53;;;23.20;97.90;;;;;;11911984;28;20081;-64
